Time;durP1;ratioP1;P1;durP2;ratioP2;P2;SDS_P1;SDS_P2;PMS_P1;PMS_P2;Temp;Humidity;BMP_temperature;BMP_pressure;BME280_temperature;BME280_humidity;BME280_pressure;Samples;Min_cycle;Max_cycle;Signal;HPM_P1;HPM_P2
2022/10/11 00:07:51;;;;;;;9.77;7.05;;;7.60;99.90;;;;;;21044914;28;20032;-48
2022/10/11 00:17:54;;;;;;;10.88;6.30;;;7.60;99.90;;;;;;21113026;28;20104;-48
2022/10/11 00:27:56;;;;;;;10.00;6.88;;;7.90;99.90;;;;;;21031819;28;20086;-48
2022/10/11 00:38:16;;;;;;;9.83;6.47;;;7.90;99.90;;;;;;21319040;27;20418;-48
2022/10/11 00:48:43;;;;;;;8.57;6.33;;;7.90;99.90;;;;;;21064497;28;20393;-52
2022/10/11 00:59:15;;;;;;;9.53;6.03;;;8.00;99.90;;;;;;21148202;27;20900;-51
2022/10/11 01:09:37;;;;;;;9.47;6.50;;;7.80;99.90;;;;;;21149979;27;20394;-51
2022/10/11 01:20:13;;;;;;;10.70;5.83;;;7.60;99.90;;;;;;21148509;27;20116;-52
2022/10/11 01:30:27;;;;;;;7.68;5.65;;;7.70;99.90;;;;;;21138613;28;20515;-48
2022/10/11 01:40:45;;;;;;;8.70;5.38;;;7.70;99.90;;;;;;21113475;28;20036;-49
2022/10/11 01:51:03;;;;;;;7.77;5.60;;;7.70;99.90;;;;;;20980748;28;20379;-48
2022/10/11 02:01:27;;;;;;;7.63;5.20;;;7.70;99.90;;;;;;20978579;28;20067;-47
2022/10/11 02:11:35;;;;;;;9.70;5.70;;;7.50;99.90;;;;;;20977734;28;20063;-48
2022/10/11 02:21:59;;;;;;;7.67;4.90;;;7.40;99.90;;;;;;21148409;27;20296;-51
2022/10/11 02:32:04;;;;;;;8.30;5.10;;;7.50;99.90;;;;;;21062227;28;20090;-46
2022/10/11 02:42:13;;;;;;;11.45;6.90;;;7.40;99.90;;;;;;21061429;28;20086;-48
2022/10/11 02:52:16;;;;;;;8.38;6.28;;;7.50;99.90;;;;;;21060212;28;20097;-49
2022/10/11 03:02:20;;;;;;;18.33;8.60;;;7.70;99.90;;;;;;20975874;28;20029;-49
2022/10/11 03:12:39;;;;;;;10.70;7.40;;;7.80;99.90;;;;;;21148328;27;20391;-51
2022/10/11 03:23:02;;;;;;;10.10;6.77;;;8.00;99.90;;;;;;21233285;27;20682;-50
2022/10/11 03:33:23;;;;;;;14.20;7.13;;;8.40;99.90;;;;;;21148234;27;20129;-49
2022/10/11 03:43:42;;;;;;;10.67;7.30;;;8.40;99.90;;;;;;21148312;27;20740;-47
2022/10/11 03:54:03;;;;;;;12.43;8.83;;;8.70;99.90;;;;;;21450616;27;20659;-50
2022/10/11 04:04:22;;;;;;;12.97;8.63;;;8.70;99.90;;;;;;21064135;28;20738;-48
2022/10/11 04:14:44;;;;;;;11.60;8.37;;;8.60;99.90;;;;;;21148329;27;20140;-51
2022/10/11 04:25:08;;;;;;;10.07;7.47;;;8.70;99.90;;;;;;21148203;27;20203;-48
2022/10/11 04:35:11;;;;;;;13.10;7.15;;;8.60;99.90;;;;;;21129167;28;20073;-50
2022/10/11 04:45:13;;;;;;;9.65;6.43;;;9.00;99.90;;;;;;21145494;28;20547;-52
2022/10/11 04:55:33;;;;;;;9.13;5.00;;;9.20;99.90;;;;;;21148372;27;20872;-50
2022/10/11 05:05:53;;;;;;;6.40;3.73;;;9.30;99.90;;;;;;20980404;28;20389;-49
2022/10/11 05:15:56;;;;;;;3.95;2.50;;;9.50;99.90;;;;;;20961522;28;20441;-48
2022/10/11 05:25:59;;;;;;;4.03;2.40;;;9.90;99.90;;;;;;20960748;28;20083;-50
2022/10/11 05:36:21;;;;;;;6.07;2.10;;;10.00;99.90;;;;;;21064193;28;20716;-48
2022/10/11 05:46:38;;;;;;;3.70;2.10;;;10.10;99.90;;;;;;20980697;28;20379;-51
2022/10/11 05:56:58;;;;;;;4.67;2.30;;;10.10;99.90;;;;;;21148449;27;20375;-47
2022/10/11 06:07:17;;;;;;;4.10;2.30;;;10.20;99.90;;;;;;21148273;27;20379;-49
2022/10/11 06:17:36;;;;;;;6.47;2.73;;;10.40;99.90;;;;;;21148583;27;20384;-50
2022/10/11 06:28:06;;;;;;;5.73;2.40;;;10.50;99.90;;;;;;21309349;27;20409;-46
2022/10/11 06:38:45;;;;;;;5.20;2.50;;;10.50;99.90;;;;;;21491936;27;20382;-48
2022/10/11 06:49:30;;;;;;;5.10;2.10;;;10.60;99.90;;;;;;21309272;27;20405;-46
2022/10/11 06:59:47;;;;;;;2.63;1.57;;;10.80;99.90;;;;;;20866410;27;15142354;-47
2022/10/11 07:10:19;;;;;;;3.73;1.80;;;11.40;99.90;;;;;;21033571;27;20416;-48
2022/10/11 07:21:03;;;;;;;5.28;1.52;;;12.10;99.90;;;;;;21237836;27;20812;-46
2022/10/11 07:31:42;;;;;;;2.72;1.52;;;12.60;99.90;;;;;;21472592;27;20731;-47
2022/10/11 07:42:16;;;;;;;2.53;1.50;;;13.00;99.90;;;;;;21004490;27;20427;-45
2022/10/11 07:52:59;;;;;;;2.90;1.15;;;13.40;99.90;;;;;;21208176;27;20108;-59
2022/10/11 08:03:37;;;;;;;2.30;1.42;;;13.80;99.90;;;;;;21428319;27;20391;-46
2022/10/11 08:14:16;;;;;;;3.33;1.40;;;14.30;99.90;;;;;;21094721;27;20770;-59
2022/10/11 08:24:54;;;;;;;;;;;14.60;99.90;;;;;;20888385;28;20124;-50
2022/10/11 08:35:32;;;;;;;;;;;14.90;99.90;;;;;;21285804;27;20421;-49
2022/10/11 08:46:11;;;;;;;;;;;15.10;99.90;;;;;;21065311;27;20415;-50
2022/10/11 08:56:15;;;;;;;2.15;1.00;;;15.30;99.90;;;;;;21069904;28;19912;-48
2022/10/11 09:06:36;;;;;;;2.72;0.95;;;16.00;99.40;;;;;;21012631;28;20070;-48
2022/10/11 09:16:59;;;;;;;1.42;0.90;;;16.40;99.90;;;;;;20997051;28;20102;-59
2022/10/11 09:27:30;;;;;;;3.88;1.23;;;16.70;98.60;;;;;;21089258;28;20388;-52
2022/10/11 09:37:56;;;;;;;3.05;2.00;;;16.80;99.00;;;;;;21078879;28;20172;-51
2022/10/11 09:48:01;;;;;;;4.35;2.30;;;16.90;99.90;;;;;;20975138;28;20041;-59
2022/10/11 09:58:20;;;;;;;2.60;2.00;;;17.70;99.90;;;;;;21064755;28;20438;-52
2022/10/11 10:08:25;;;;;;;4.80;2.42;;;17.60;99.90;;;;;;21066697;28;20542;-50
2022/10/11 10:18:39;;;;;;;3.92;2.28;;;17.70;99.90;;;;;;21069415;28;20448;-49
2022/10/11 10:28:57;;;;;;;4.28;2.47;;;18.00;99.90;;;;;;21077962;28;20036;-59
2022/10/11 10:39:17;;;;;;;2.10;1.80;;;18.70;99.90;;;;;;21081617;28;20397;-47
2022/10/11 10:49:31;;;;;;;4.75;1.88;;;19.70;99.90;;;;;;21063851;28;20036;-47
2022/10/11 10:59:49;;;;;;;4.57;2.00;;;20.70;99.90;;;;;;20995637;28;20086;-48
2022/10/11 11:10:00;;;;;;;3.93;2.57;;;21.60;97.10;;;;;;20995559;28;20086;-51
2022/10/11 11:20:06;;;;;;;3.28;2.30;;;21.10;96.90;;;;;;20984431;28;20036;-51
2022/10/11 11:30:30;;;;;;;4.85;3.55;;;20.60;99.00;;;;;;21071274;28;20036;-48
2022/10/11 11:40:38;;;;;;;7.25;4.60;;;20.50;99.90;;;;;;21045298;28;20044;-53
2022/10/11 11:50:47;;;;;;;9.63;6.03;;;19.90;99.90;;;;;;21076073;28;20028;-51
2022/10/11 12:01:17;;;;;;;10.80;6.73;;;19.50;99.90;;;;;;21075257;28;20385;-51
2022/10/11 12:11:37;;;;;;;11.60;7.65;;;19.00;99.90;;;;;;21074374;28;20028;-50
2022/10/11 12:21:43;;;;;;;12.70;7.82;;;18.60;99.90;;;;;;21052889;28;20101;-50
2022/10/11 12:32:00;;;;;;;9.63;7.07;;;18.50;99.90;;;;;;21075252;28;20061;-50
2022/10/11 12:42:18;;;;;;;11.48;7.85;;;18.60;99.90;;;;;;21072823;28;20044;-49
2022/10/11 12:52:32;;;;;;;11.47;7.43;;;18.40;99.90;;;;;;21055994;28;20028;-48
2022/10/11 13:02:43;;;;;;;13.60;8.23;;;18.20;99.90;;;;;;21002658;28;20566;-59
2022/10/11 13:12:47;;;;;;;15.75;9.05;;;18.00;99.90;;;;;;21059238;28;20036;-51
2022/10/11 13:22:53;;;;;;;13.07;9.50;;;17.70;99.90;;;;;;21071782;28;20109;-50
2022/10/11 13:32:59;;;;;;;;;;;17.30;99.90;;;;;;21057035;28;20040;-48
2022/10/11 13:43:04;;;;;;;13.85;9.85;;;17.20;99.90;;;;;;20955151;28;19920;-52
2022/10/11 13:53:10;;;;;;;14.88;10.63;;;16.90;99.90;;;;;;20982856;28;20572;-50
2022/10/11 14:03:12;;;;;;;13.50;10.57;;;16.90;99.90;;;;;;21084870;28;20073;-50
2022/10/11 14:13:31;;;;;;;17.10;11.77;;;16.70;99.90;;;;;;21022850;28;20036;-48
2022/10/11 14:23:34;;;;;;;17.30;11.90;;;16.60;99.90;;;;;;21008945;28;20032;-52
2022/10/11 14:33:37;;;;;;;15.30;11.38;;;16.60;99.90;;;;;;21082616;28;20032;-59
2022/10/11 14:43:39;;;;;;;15.02;11.77;;;16.60;99.90;;;;;;21080837;28;20102;-58
2022/10/11 14:53:45;;;;;;;13.93;10.60;;;16.70;99.90;;;;;;21080416;28;20044;-52
2022/10/11 15:03:47;;;;;;;14.38;10.60;;;16.80;99.90;;;;;;21001135;28;20033;-58
2022/10/11 15:13:50;;;;;;;14.27;9.93;;;16.70;99.90;;;;;;21075300;28;20032;-49
2022/10/11 15:23:54;;;;;;;14.95;10.82;;;16.50;99.90;;;;;;21061339;28;20040;-59
2022/10/11 15:33:58;;;;;;;17.25;10.38;;;15.90;99.90;;;;;;21038944;28;20071;-50
2022/10/11 15:44:01;;;;;;;15.48;11.15;;;15.10;99.90;;;;;;21057625;28;20621;-59
2022/10/11 15:54:03;;;;;;;16.42;11.65;;;14.10;99.90;;;;;;21075344;28;20036;-51
2022/10/11 16:04:06;;;;;;;18.98;12.13;;;13.20;99.90;;;;;;21075487;28;20028;-58
2022/10/11 16:14:08;;;;;;;22.90;13.77;;;12.30;99.90;;;;;;21057200;28;20378;-59
2022/10/11 16:24:11;;;;;;;11.05;7.93;;;11.60;99.90;;;;;;21052459;28;20082;-50
2022/10/11 16:34:14;;;;;;;15.85;8.15;;;11.10;99.90;;;;;;21073349;28;20388;-58
2022/10/11 16:44:23;;;;;;;10.88;5.80;;;10.60;99.90;;;;;;21072654;28;20465;-50
2022/10/11 16:54:31;;;;;;;9.97;4.43;;;10.30;99.90;;;;;;21069010;28;20093;-58
2022/10/11 17:04:34;;;;;;;7.00;5.03;;;10.00;99.90;;;;;;20987486;28;20131;-49
2022/10/11 17:14:37;;;;;;;8.68;3.53;;;9.70;99.90;;;;;;21055858;28;20028;-52
2022/10/11 17:24:40;;;;;;;7.78;2.72;;;9.50;99.90;;;;;;21031982;28;20484;-49
2022/10/11 17:34:43;;;;;;;4.07;2.05;;;9.30;99.90;;;;;;21044889;28;20028;-48
2022/10/11 17:44:45;;;;;;;5.68;1.88;;;9.10;99.90;;;;;;21086049;28;20098;-57
2022/10/11 17:54:48;;;;;;;4.40;1.58;;;9.10;99.90;;;;;;21085254;28;20392;-47
2022/10/11 18:04:51;;;;;;;4.75;1.58;;;9.10;99.90;;;;;;21084655;28;20024;-49
2022/10/11 18:14:53;;;;;;;5.28;1.20;;;9.10;99.90;;;;;;21083848;28;20105;-48
2022/10/11 18:24:55;;;;;;;4.95;1.60;;;8.90;99.90;;;;;;21061795;28;20447;-49
2022/10/11 18:34:59;;;;;;;2.50;0.80;;;8.90;99.90;;;;;;21082196;28;20473;-58
2022/10/11 18:45:01;;;;;;;3.67;1.25;;;9.00;99.90;;;;;;21081635;28;20044;-49
2022/10/11 18:55:04;;;;;;;3.38;1.05;;;8.90;99.90;;;;;;21071780;28;20451;-46
2022/10/11 19:05:07;;;;;;;3.47;1.08;;;8.80;99.90;;;;;;20978113;28;20112;-60
2022/10/11 19:15:10;;;;;;;6.55;1.02;;;8.80;99.90;;;;;;21079057;28;20047;-59
2022/10/11 19:25:13;;;;;;;4.22;1.20;;;8.70;99.90;;;;;;21077161;28;20036;-58
2022/10/11 19:35:16;;;;;;;3.47;1.00;;;8.70;99.90;;;;;;20974981;28;20032;-61
2022/10/11 19:45:19;;;;;;;5.13;1.10;;;8.80;99.90;;;;;;20966257;28;20053;-57
2022/10/11 19:55:22;;;;;;;4.75;1.30;;;9.00;99.90;;;;;;21010019;28;20036;-59
2022/10/11 20:05:24;;;;;;;5.78;1.08;;;8.80;99.90;;;;;;21074846;28;20036;-60
2022/10/11 20:15:27;;;;;;;4.57;1.20;;;8.90;99.90;;;;;;21057488;28;20087;-59
2022/10/11 20:25:29;;;;;;;4.00;1.27;;;8.70;99.90;;;;;;21053964;28;20028;-50
2022/10/11 20:35:32;;;;;;;2.80;0.60;;;8.70;99.90;;;;;;20981156;28;20040;-59
2022/10/11 20:45:35;;;;;;;4.57;0.82;;;8.60;99.90;;;;;;20977424;28;20044;-51
2022/10/11 20:55:37;;;;;;;4.53;1.00;;;8.60;99.90;;;;;;21058252;28;20036;-51
2022/10/11 21:05:40;;;;;;;2.67;0.98;;;8.50;99.90;;;;;;21000289;28;20036;-50
2022/10/11 21:15:42;;;;;;;1.77;1.00;;;8.40;99.90;;;;;;21072427;28;20086;-52
2022/10/11 21:25:45;;;;;;;3.13;0.60;;;8.40;99.90;;;;;;21071678;28;20032;-49
2022/10/11 21:35:48;;;;;;;2.75;0.80;;;8.40;99.90;;;;;;21000700;28;20083;-51
2022/10/11 21:45:53;;;;;;;4.78;0.80;;;8.50;99.90;;;;;;20908464;28;20563;-52
2022/10/11 21:55:59;;;;;;;3.00;0.75;;;8.40;99.90;;;;;;21030955;28;20035;-51
2022/10/11 22:06:04;;;;;;;3.00;0.75;;;8.50;99.90;;;;;;21086670;28;20032;-48
2022/10/11 22:16:13;;;;;;;4.05;0.60;;;8.30;99.90;;;;;;21085397;28;20385;-50
2022/10/11 22:26:20;;;;;;;3.70;0.65;;;8.20;99.90;;;;;;21061880;28;20105;-48
2022/10/11 22:36:32;;;;;;;2.17;0.80;;;8.10;99.90;;;;;;21082270;28;20104;-49
2022/10/11 22:46:39;;;;;;;5.78;0.75;;;7.90;99.90;;;;;;21081764;28;20032;-52
2022/10/11 22:56:41;;;;;;;4.35;0.90;;;8.10;99.90;;;;;;21043532;28;20036;-50
2022/10/11 23:06:51;;;;;;;;;;;8.10;99.90;;;;;;21017063;28;20451;-49
2022/10/11 23:16:58;;;;;;;2.33;0.68;;;8.10;99.90;;;;;;21081504;28;19908;-52
2022/10/11 23:27:06;;;;;;;4.88;0.80;;;8.10;99.90;;;;;;21079376;28;20040;-52
2022/10/11 23:37:08;;;;;;;3.13;1.13;;;8.30;99.90;;;;;;21035933;28;20443;-50
2022/10/11 23:47:17;;;;;;;4.50;1.10;;;8.20;99.90;;;;;;21061439;28;20089;-49
2022/10/11 23:57:30;;;;;;;8.70;1.15;;;8.10;99.90;;;;;;21077151;28;20032;-52
